createdAt,value
2023-03-06T00:00:26.126Z,20.15
2023-03-06T00:02:53.436Z,15.23
2023-03-06T00:05:20.818Z,17.42
2023-03-06T00:07:48.197Z,20.73
2023-03-06T00:10:17.546Z,17.38
2023-03-06T00:12:44.870Z,18.52
2023-03-06T00:15:12.906Z,20.80
2023-03-06T00:17:40.381Z,19.55
2023-03-06T00:20:08.330Z,20.02
2023-03-06T00:22:35.682Z,19.33
2023-03-06T00:25:03.016Z,18.48
2023-03-06T00:27:31.482Z,22.17
2023-03-06T00:30:00.665Z,19.80
2023-03-06T00:32:28.306Z,18.33
2023-03-06T00:34:56.052Z,17.00
2023-03-06T00:37:24.105Z,19.67
2023-03-06T00:39:51.394Z,17.37
2023-03-06T00:42:18.920Z,19.90
2023-03-06T00:44:46.380Z,18.45
2023-03-06T00:47:17.238Z,18.67
2023-03-06T00:49:44.973Z,21.25
2023-03-06T00:52:12.952Z,19.23
2023-03-06T00:54:41.022Z,20.40
2023-03-06T00:57:08.462Z,18.25
2023-03-06T00:59:36.106Z,20.35
2023-03-06T01:02:03.526Z,21.50
2023-03-06T01:04:31.955Z,18.00
2023-03-06T01:06:59.303Z,18.48
2023-03-06T01:09:26.621Z,19.20
2023-03-06T01:11:54.296Z,18.98
2023-03-06T01:14:21.819Z,21.38
2023-03-06T01:16:49.200Z,20.80
2023-03-06T01:19:18.037Z,18.10
2023-03-06T01:21:46.114Z,20.15
2023-03-06T01:24:13.504Z,21.38
2023-03-06T01:26:40.764Z,19.80
2023-03-06T01:29:08.107Z,17.50
2023-03-06T01:31:35.445Z,17.83
2023-03-06T01:34:02.803Z,16.80
2023-03-06T01:36:30.092Z,18.50
2023-03-06T01:38:57.426Z,18.55
2023-03-06T01:41:24.918Z,16.00
2023-03-06T01:43:52.341Z,22.00
2023-03-06T01:46:28.814Z,16.73
2023-03-06T01:49:19.284Z,18.60
2023-03-06T01:51:51.518Z,17.80
2023-03-06T01:54:36.342Z,20.73
2023-03-06T01:57:06.072Z,17.83
2023-03-06T01:59:34.020Z,16.48
2023-03-06T02:02:02.006Z,17.42
2023-03-06T02:04:29.942Z,17.63
2023-03-06T02:06:59.401Z,15.47
2023-03-06T02:09:30.003Z,15.68
2023-03-06T02:11:57.866Z,16.27
2023-03-06T02:14:25.117Z,14.95
2023-03-06T02:16:52.577Z,16.50
2023-03-06T02:19:44.291Z,16.00
2023-03-06T02:22:11.626Z,17.98
2023-03-06T02:25:03.444Z,18.25
2023-03-06T02:27:30.878Z,16.02
2023-03-06T02:29:58.294Z,19.02
2023-03-06T02:32:25.729Z,19.93
2023-03-06T02:34:55.285Z,19.70
2023-03-06T02:37:23.993Z,17.33
2023-03-06T02:40:18.080Z,18.42
2023-03-06T02:42:49.704Z,20.83
2023-03-06T02:45:32.501Z,16.63
2023-03-06T02:47:59.813Z,17.80
2023-03-06T02:50:27.194Z,17.27
2023-03-06T02:52:54.587Z,21.48
2023-03-06T02:55:21.914Z,18.98
2023-03-06T02:57:49.344Z,18.23
2023-03-06T03:00:17.609Z,18.58
2023-03-06T03:02:45.002Z,19.45
2023-03-06T03:05:12.252Z,17.42
2023-03-06T03:07:42.723Z,20.08
2023-03-06T03:10:11.238Z,17.70
2023-03-06T03:12:38.706Z,17.38
2023-03-06T03:15:06.718Z,17.70
2023-03-06T03:17:37.905Z,17.60
2023-03-06T03:20:06.246Z,19.67
2023-03-06T03:22:33.836Z,19.80
2023-03-06T03:25:01.168Z,18.40
2023-03-06T03:27:28.476Z,18.52
2023-03-06T03:29:59.732Z,18.10
2023-03-06T03:32:28.706Z,20.23
2023-03-06T03:34:56.281Z,21.30
2023-03-06T03:37:25.635Z,18.30
2023-03-06T03:39:54.241Z,19.13
2023-03-06T03:42:21.743Z,19.67
2023-03-06T03:44:50.430Z,22.40
2023-03-06T03:47:20.620Z,17.37
2023-03-06T03:49:48.525Z,18.98
2023-03-06T03:52:16.050Z,16.10
2023-03-06T03:54:43.799Z,24.40
2023-03-06T03:57:11.133Z,22.83
2023-03-06T03:59:42.376Z,17.43
2023-03-06T04:02:26.022Z,18.77
2023-03-06T04:05:05.186Z,21.13
2023-03-06T04:07:32.789Z,16.92
2023-03-06T04:10:00.491Z,16.50
2023-03-06T04:12:29.496Z,18.50
2023-03-06T04:14:56.790Z,18.33
2023-03-06T04:17:24.235Z,18.05
2023-03-06T04:19:52.359Z,14.27
2023-03-06T04:22:19.763Z,23.67
2023-03-06T04:24:49.770Z,15.27
2023-03-06T04:27:17.997Z,18.23
2023-03-06T04:29:45.511Z,17.27
2023-03-06T04:32:13.150Z,17.35
2023-03-06T04:34:40.604Z,16.60
2023-03-06T04:37:11.555Z,15.73
2023-03-06T04:39:38.923Z,16.13
2023-03-06T04:42:06.328Z,16.13
2023-03-06T04:44:33.651Z,16.88
2023-03-06T04:47:00.945Z,17.95
2023-03-06T04:49:28.333Z,18.50
2023-03-06T04:51:55.623Z,18.80
2023-03-06T04:54:22.974Z,21.77
2023-03-06T04:56:50.210Z,17.25
2023-03-06T04:59:17.990Z,17.92
2023-03-06T05:01:45.267Z,19.27
2023-03-06T05:04:12.571Z,18.77
2023-03-06T05:06:39.836Z,19.60
2023-03-06T05:09:07.167Z,16.98
2023-03-06T05:11:34.413Z,19.83
2023-03-06T05:14:01.733Z,16.90
2023-03-06T05:16:29.106Z,20.40
2023-03-06T05:18:56.443Z,27.55
2023-03-06T05:21:23.732Z,21.65
2023-03-06T05:23:51.091Z,22.73
2023-03-06T05:26:18.353Z,22.57
2023-03-06T05:28:45.706Z,24.60
2023-03-06T05:31:12.955Z,23.58
2023-03-06T05:33:40.297Z,17.63
2023-03-06T05:36:08.750Z,20.65
2023-03-06T05:38:36.076Z,18.80
2023-03-06T05:41:03.481Z,22.80
2023-03-06T05:43:30.878Z,20.33
2023-03-06T05:46:04.856Z,22.80
2023-03-06T05:48:32.529Z,16.20
2023-03-06T05:51:00.256Z,18.30
2023-03-06T05:53:29.356Z,17.88
2023-03-06T05:55:57.618Z,23.42
2023-03-06T05:58:25.175Z,17.38
2023-03-06T06:00:52.590Z,19.75
2023-03-06T06:03:20.286Z,20.53
2023-03-06T06:05:47.652Z,21.98
2023-03-06T06:08:15.204Z,21.20
2023-03-06T06:10:42.624Z,21.90
2023-03-06T06:13:10.920Z,20.75
2023-03-06T06:15:38.910Z,21.70
2023-03-06T06:18:24.468Z,22.33
2023-03-06T06:20:52.632Z,21.60
2023-03-06T06:23:20.952Z,24.67
2023-03-06T06:25:48.511Z,25.55
2023-03-06T06:28:17.372Z,21.40
2023-03-06T06:30:45.333Z,20.52
2023-03-06T06:33:12.647Z,20.02
2023-03-06T06:35:40.136Z,26.80
2023-03-06T06:38:07.648Z,28.33
2023-03-06T06:40:35.221Z,35.53
2023-03-06T06:43:22.633Z,38.28
2023-03-06T06:45:50.541Z,31.80
2023-03-06T06:48:18.763Z,38.28
2023-03-06T06:50:46.387Z,28.92
2023-03-06T06:53:13.782Z,28.07
2023-03-06T06:55:41.156Z,23.83
2023-03-06T06:58:11.476Z,20.70
2023-03-06T07:00:38.908Z,21.40
2023-03-06T07:03:10.946Z,15.13
2023-03-06T07:05:44.566Z,24.02
2023-03-06T07:08:17.769Z,21.53
2023-03-06T07:10:45.926Z,22.65
2023-03-06T07:13:14.347Z,17.95
2023-03-06T07:15:41.734Z,19.92
2023-03-06T07:18:09.514Z,20.08
2023-03-06T07:20:37.013Z,17.27
2023-03-06T07:23:04.422Z,20.40
2023-03-06T07:25:31.710Z,19.23
2023-03-06T07:27:59.436Z,22.33
2023-03-06T07:30:26.966Z,19.90
2023-03-06T07:32:58.062Z,19.43
2023-03-06T07:35:28.654Z,20.58
2023-03-06T07:37:56.156Z,18.10
2023-03-06T07:40:24.444Z,20.23
2023-03-06T07:43:06.063Z,17.83
2023-03-06T07:45:47.318Z,17.83
2023-03-06T07:48:14.992Z,19.75
2023-03-06T07:50:43.229Z,15.02
2023-03-06T07:53:11.585Z,20.58
2023-03-06T07:55:40.627Z,19.10
2023-03-06T07:58:07.944Z,17.83
2023-03-06T08:00:35.886Z,17.23
2023-03-06T08:05:50.691Z,20.75
2023-03-06T08:08:21.300Z,19.83
2023-03-06T08:10:52.865Z,17.77
2023-03-06T08:14:43.678Z,19.67
2023-03-06T08:17:21.211Z,18.85
2023-03-06T08:19:48.592Z,26.92
2023-03-06T08:22:16.065Z,20.95
2023-03-06T08:24:43.732Z,17.27
2023-03-06T08:27:11.123Z,18.70
2023-03-06T08:29:38.889Z,18.75
2023-03-06T08:32:06.520Z,18.77
2023-03-06T08:34:33.797Z,14.65
2023-03-06T08:37:01.173Z,19.27
2023-03-06T08:39:30.444Z,18.45
2023-03-06T08:44:45.960Z,14.98
2023-03-06T08:47:13.497Z,15.88
2023-03-06T08:49:40.906Z,20.03
2023-03-06T08:52:08.615Z,18.95
2023-03-06T08:54:39.955Z,20.40
2023-03-06T08:57:07.315Z,22.88
2023-03-06T08:59:35.281Z,17.42
2023-03-06T09:02:04.239Z,16.53
2023-03-06T09:04:31.943Z,22.73
2023-03-06T09:07:06.975Z,19.73
2023-03-06T09:09:34.415Z,20.17
2023-03-06T09:12:01.948Z,22.38
2023-03-06T09:14:29.744Z,20.10
2023-03-06T09:16:57.540Z,19.50
2023-03-06T09:19:25.039Z,20.55
2023-03-06T09:21:54.197Z,24.95
2023-03-06T09:24:21.889Z,17.20
2023-03-06T09:26:51.883Z,21.93
2023-03-06T09:29:19.407Z,20.40
2023-03-06T09:31:47.619Z,18.80
2023-03-06T09:34:15.089Z,21.63
2023-03-06T09:36:55.916Z,22.58
2023-03-06T09:39:26.069Z,21.03
2023-03-06T09:41:53.516Z,19.52
2023-03-06T09:44:23.304Z,22.92
2023-03-06T09:47:09.521Z,22.30
2023-03-06T09:50:00.698Z,20.58
2023-03-06T09:52:43.504Z,21.30
2023-03-06T09:55:11.838Z,19.80
2023-03-06T09:57:43.399Z,21.70
2023-03-06T10:00:20.625Z,22.10
2023-03-06T10:02:53.892Z,20.00
2023-03-06T10:05:45.107Z,20.77
2023-03-06T10:08:20.074Z,19.38
2023-03-06T10:10:58.508Z,19.23
2023-03-06T10:13:31.132Z,20.20
2023-03-06T10:16:27.797Z,19.38
2023-03-06T10:18:56.750Z,19.30
2023-03-06T10:21:47.956Z,20.63
2023-03-06T10:24:35.255Z,21.63
2023-03-06T10:27:30.239Z,18.92
2023-03-06T10:30:24.433Z,22.48
2023-03-06T10:32:59.866Z,21.63
2023-03-06T10:35:42.439Z,19.38
2023-03-06T10:38:18.860Z,19.85
2023-03-06T10:40:55.351Z,23.35
2023-03-06T10:43:23.009Z,21.48
2023-03-06T10:45:52.105Z,17.77
2023-03-06T10:48:24.720Z,18.98
2023-03-06T10:50:55.031Z,21.02
2023-03-06T10:53:27.290Z,21.02
2023-03-06T10:55:59.484Z,18.50
2023-03-06T10:58:31.873Z,17.57
2023-03-06T11:01:08.648Z,22.70
2023-03-06T11:03:36.794Z,19.30
2023-03-06T11:06:13.428Z,19.88
2023-03-06T11:08:43.663Z,19.10
2023-03-06T11:11:36.733Z,21.73
2023-03-06T11:14:27.729Z,20.90
2023-03-06T11:16:58.319Z,19.27
2023-03-06T11:19:28.261Z,19.60
2023-03-06T11:22:04.072Z,19.67
2023-03-06T11:24:37.115Z,22.17
2023-03-06T11:27:31.226Z,22.13
2023-03-06T11:29:59.302Z,21.63
2023-03-06T11:32:42.380Z,19.25
2023-03-06T11:35:12.855Z,21.83
2023-03-06T11:37:47.897Z,24.83
2023-03-06T11:40:20.465Z,21.02
2023-03-06T11:43:18.654Z,21.20
2023-03-06T11:45:58.855Z,20.58
2023-03-06T11:48:39.765Z,20.77
2023-03-06T11:51:19.651Z,21.10
2023-03-06T11:53:48.474Z,24.08
2023-03-06T11:56:19.023Z,20.70
2023-03-06T11:59:08.496Z,19.25
2023-03-06T12:02:03.643Z,18.23
2023-03-06T12:05:08.493Z,22.13
2023-03-06T12:07:37.363Z,23.13
2023-03-06T12:10:23.848Z,21.33
2023-03-06T12:12:57.441Z,20.67
2023-03-06T12:16:09.982Z,24.48
2023-03-06T12:18:55.420Z,24.40
2023-03-06T12:21:47.850Z,22.05
2023-03-06T12:24:40.363Z,25.75
2023-03-06T12:27:10.929Z,27.02
2023-03-06T12:30:06.098Z,20.27
2023-03-06T12:32:40.097Z,22.57
2023-03-06T12:35:32.468Z,22.55
2023-03-06T12:38:24.336Z,24.65
2023-03-06T12:41:24.419Z,24.17
2023-03-06T12:44:04.441Z,28.50
2023-03-06T12:46:32.036Z,24.47
2023-03-06T12:49:31.394Z,24.85
2023-03-06T12:51:59.886Z,24.30
2023-03-06T12:54:31.449Z,24.55
2023-03-06T12:57:00.012Z,23.30
2023-03-06T12:59:38.265Z,24.30
2023-03-06T13:02:17.968Z,29.25
2023-03-06T13:05:26.796Z,21.85
2023-03-06T13:08:15.361Z,23.38
2023-03-06T13:10:43.453Z,21.90
2023-03-06T13:13:33.687Z,23.23
2023-03-06T13:16:04.820Z,22.40
2023-03-06T13:18:38.660Z,25.70
2023-03-06T13:21:06.088Z,27.40
2023-03-06T13:23:33.582Z,27.05
2023-03-06T13:26:26.330Z,25.20
2023-03-06T13:28:55.467Z,26.10
2023-03-06T13:31:33.960Z,28.05
2023-03-06T13:34:05.809Z,24.92
2023-03-06T13:36:34.198Z,23.20
2023-03-06T13:39:02.780Z,24.47
2023-03-06T13:41:34.712Z,24.98
2023-03-06T13:44:06.231Z,22.98
2023-03-06T13:46:37.417Z,22.73
2023-03-06T13:49:07.903Z,25.88
2023-03-06T13:51:38.836Z,24.00
2023-03-06T13:54:12.123Z,23.40
2023-03-06T13:57:05.099Z,21.33
2023-03-06T13:59:35.114Z,25.02
2023-03-06T14:02:17.670Z,21.40
2023-03-06T14:05:01.521Z,23.13
2023-03-06T14:07:29.534Z,24.10
2023-03-06T14:10:11.350Z,22.10
2023-03-06T14:12:51.025Z,25.02
2023-03-06T14:15:25.059Z,23.20
2023-03-06T14:18:05.536Z,24.73
2023-03-06T14:20:39.276Z,24.02
2023-03-06T14:23:18.972Z,21.60
2023-03-06T14:25:46.603Z,23.27
2023-03-06T14:28:24.621Z,25.27
2023-03-06T14:30:52.846Z,23.07
2023-03-06T14:33:29.496Z,22.23
2023-03-06T14:35:58.656Z,24.50
2023-03-06T14:38:27.023Z,22.42
2023-03-06T14:40:54.367Z,23.08
2023-03-06T14:43:27.130Z,23.53
2023-03-06T14:46:02.379Z,24.35
2023-03-06T14:48:44.237Z,21.65
2023-03-06T14:51:17.671Z,24.70
2023-03-06T14:53:45.955Z,23.83
2023-03-06T14:56:23.490Z,24.30
2023-03-06T14:58:57.021Z,24.13
2023-03-06T15:01:33.721Z,23.13
2023-03-06T15:04:01.377Z,24.17
2023-03-06T15:06:36.668Z,22.67
2023-03-06T15:09:24.515Z,22.23
2023-03-06T15:11:57.888Z,22.67
2023-03-06T15:14:38.804Z,21.80
2023-03-06T15:17:19.354Z,22.65
2023-03-06T15:19:47.700Z,23.50
2023-03-06T15:22:35.717Z,20.87
2023-03-06T15:25:22.674Z,23.08
2023-03-06T15:27:50.088Z,25.55
2023-03-06T15:30:26.703Z,26.08
2023-03-06T15:33:09.342Z,24.65
2023-03-06T15:35:38.234Z,24.93
2023-03-06T15:38:32.694Z,29.02
2023-03-06T15:41:01.757Z,32.53
2023-03-06T15:43:33.003Z,25.90
2023-03-06T15:46:00.852Z,24.75
2023-03-06T15:48:28.648Z,21.87
2023-03-06T15:50:56.472Z,26.17
2023-03-06T15:53:23.931Z,24.35
2023-03-06T15:55:51.837Z,23.27
2023-03-06T15:58:25.030Z,24.05
2023-03-06T16:00:52.523Z,25.10
2023-03-06T16:03:20.013Z,25.10
2023-03-06T16:05:47.601Z,26.13
2023-03-06T16:08:15.502Z,22.77
2023-03-06T16:10:43.364Z,29.45
2023-03-06T16:13:23.990Z,22.13
2023-03-06T16:15:51.379Z,20.13
2023-03-06T16:18:18.878Z,23.95
2023-03-06T16:20:46.792Z,24.27
2023-03-06T16:23:15.532Z,21.77
2023-03-06T16:25:43.872Z,24.83
2023-03-06T16:28:15.544Z,19.42
2023-03-06T16:30:43.681Z,25.55
2023-03-06T16:33:11.747Z,23.00
2023-03-06T16:35:39.382Z,24.60
2023-03-06T16:38:06.699Z,19.53
2023-03-06T16:40:37.843Z,21.25
2023-03-06T16:43:05.630Z,25.45
2023-03-06T16:45:35.671Z,21.83
2023-03-06T16:48:03.146Z,26.38
2023-03-06T16:50:40.473Z,25.33
2023-03-06T16:53:07.908Z,24.65
2023-03-06T16:55:35.251Z,22.75
2023-03-06T16:58:02.688Z,27.63
2023-03-06T17:00:33.178Z,24.83
2023-03-06T17:03:02.817Z,27.73
2023-03-06T17:05:33.304Z,22.17
2023-03-06T17:08:03.782Z,25.08
2023-03-06T17:10:31.258Z,22.85
2023-03-06T17:12:58.864Z,22.67
2023-03-06T17:15:26.209Z,22.90
2023-03-06T17:17:53.664Z,23.65
2023-03-06T17:20:21.132Z,24.92
2023-03-06T17:22:48.463Z,22.70
2023-03-06T17:25:15.762Z,21.27
2023-03-06T17:27:43.119Z,24.30
2023-03-06T17:30:11.077Z,26.73
2023-03-06T17:32:41.136Z,31.67
2023-03-06T17:35:09.386Z,22.55
2023-03-06T17:37:36.766Z,29.42
2023-03-06T17:40:06.966Z,25.40
2023-03-06T17:42:35.171Z,26.45
2023-03-06T17:45:02.537Z,26.13
2023-03-06T17:47:29.927Z,25.23
2023-03-06T17:49:57.292Z,24.02
2023-03-06T17:52:24.954Z,26.20
2023-03-06T17:54:52.380Z,33.10
2023-03-06T17:57:19.698Z,27.42
2023-03-06T17:59:48.810Z,26.23
2023-03-06T18:02:16.107Z,28.50
2023-03-06T18:04:43.550Z,31.20
2023-03-06T18:07:11.128Z,27.83
2023-03-06T18:09:38.733Z,26.98
2023-03-06T18:12:06.341Z,27.55
2023-03-06T18:14:33.628Z,29.60
2023-03-06T18:17:01.126Z,28.10
2023-03-06T18:19:28.424Z,30.10
2023-03-06T18:21:55.784Z,30.45
2023-03-06T18:24:23.486Z,27.40
2023-03-06T18:26:50.878Z,27.13
2023-03-06T18:29:18.337Z,27.53
2023-03-06T18:31:47.064Z,31.63
2023-03-06T18:34:14.700Z,30.40
2023-03-06T18:36:43.692Z,26.83
2023-03-06T18:39:12.009Z,31.08
2023-03-06T18:41:39.355Z,30.13
2023-03-06T18:44:06.854Z,28.63
2023-03-06T18:46:35.868Z,28.98
2023-03-06T18:49:03.511Z,33.85
2023-03-06T18:51:31.123Z,31.08
2023-03-06T18:53:59.489Z,33.77
2023-03-06T18:56:26.939Z,32.58
2023-03-06T18:58:54.394Z,31.08
2023-03-06T19:01:22.677Z,30.67
2023-03-06T19:03:50.140Z,29.77
2023-03-06T19:06:17.666Z,31.73
2023-03-06T19:08:45.047Z,31.95
2023-03-06T19:11:16.397Z,29.25
2023-03-06T19:13:44.126Z,29.38
2023-03-06T19:16:18.787Z,29.38
2023-03-06T19:18:46.218Z,33.63
2023-03-06T19:21:15.579Z,32.35
2023-03-06T19:23:42.988Z,27.17
2023-03-06T19:26:10.430Z,31.45
2023-03-06T19:28:38.679Z,33.92
2023-03-06T19:31:13.730Z,34.10
2023-03-06T19:33:41.306Z,33.17
2023-03-06T19:36:10.434Z,34.45
2023-03-06T19:38:37.765Z,29.23
2023-03-06T19:41:05.473Z,33.65
2023-03-06T19:43:32.842Z,31.17
2023-03-06T19:46:01.103Z,26.98
2023-03-06T19:48:28.553Z,27.10
2023-03-06T19:50:55.900Z,26.58
2023-03-06T19:53:23.354Z,34.92
2023-03-06T19:55:50.684Z,27.63
2023-03-06T19:58:18.060Z,29.30
2023-03-06T20:00:45.299Z,31.17
2023-03-06T20:03:12.539Z,28.92
2023-03-06T20:05:46.289Z,30.98
2023-03-06T20:08:13.615Z,30.77
2023-03-06T20:10:40.888Z,29.52
2023-03-06T20:13:08.173Z,28.60
2023-03-06T20:15:36.834Z,28.25
2023-03-06T20:18:05.981Z,31.48
2023-03-06T20:20:33.202Z,32.07
2023-03-06T20:23:04.531Z,33.47
2023-03-06T20:25:31.904Z,30.73
2023-03-06T20:27:59.176Z,27.05
2023-03-06T20:30:36.652Z,30.85
2023-03-06T20:33:04.896Z,32.03
2023-03-06T20:35:32.277Z,30.83
2023-03-06T20:38:00.810Z,31.92
2023-03-06T20:40:28.155Z,35.33
2023-03-06T20:42:55.403Z,33.65
2023-03-06T20:45:22.719Z,28.67
2023-03-06T20:47:50.042Z,29.20
2023-03-06T20:50:17.502Z,30.50
2023-03-06T20:52:44.778Z,30.90
2023-03-06T20:55:12.083Z,31.50
2023-03-06T20:57:39.385Z,31.87
2023-03-06T21:00:07.383Z,33.55
2023-03-06T21:02:34.739Z,26.33
2023-03-06T21:05:02.835Z,29.85
2023-03-06T21:07:30.102Z,33.03
2023-03-06T21:09:57.421Z,33.60
2023-03-06T21:12:24.782Z,32.25
2023-03-06T21:14:52.043Z,33.17
2023-03-06T21:17:19.360Z,29.40
2023-03-06T21:19:46.633Z,30.52
2023-03-06T21:22:13.999Z,29.70
2023-03-06T21:24:41.330Z,32.53
2023-03-06T21:27:08.703Z,33.25
2023-03-06T21:29:36.154Z,30.48
2023-03-06T21:32:03.584Z,31.33
2023-03-06T21:34:30.900Z,33.60
2023-03-06T21:36:58.188Z,30.20
2023-03-06T21:39:25.464Z,31.08
2023-03-06T21:41:52.731Z,34.70
2023-03-06T21:44:20.053Z,32.55
2023-03-06T21:46:47.387Z,34.43
2023-03-06T21:49:14.689Z,34.50
2023-03-06T21:51:41.977Z,38.20
2023-03-06T21:54:09.840Z,32.03
2023-03-06T21:56:37.237Z,35.13
2023-03-06T21:59:04.479Z,36.80
2023-03-06T22:01:31.811Z,35.72
2023-03-06T22:04:00.316Z,38.45
2023-03-06T22:06:28.677Z,32.00
2023-03-06T22:08:56.416Z,35.58
2023-03-06T22:11:24.390Z,31.67
2023-03-06T22:13:53.313Z,33.28
2023-03-06T22:16:20.996Z,35.65
2023-03-06T22:18:49.244Z,35.40
2023-03-06T22:21:17.549Z,36.30
2023-03-06T22:23:44.850Z,34.07
2023-03-06T22:26:13.071Z,35.10
2023-03-06T22:28:40.855Z,35.78
2023-03-06T22:31:18.915Z,34.95
2023-03-06T22:33:46.389Z,32.25
2023-03-06T22:36:14.768Z,33.07
2023-03-06T22:38:43.878Z,33.30
2023-03-06T22:41:14.526Z,32.72
2023-03-06T22:43:42.078Z,35.45
2023-03-06T22:46:10.957Z,33.28
2023-03-06T22:48:38.280Z,33.23
2023-03-06T22:51:10.574Z,28.40
2023-03-06T22:53:37.852Z,35.10
2023-03-06T22:56:07.855Z,37.20
2023-03-06T22:58:36.944Z,31.33
2023-03-06T23:01:11.485Z,33.03
2023-03-06T23:03:39.939Z,28.35
2023-03-06T23:06:12.459Z,33.35
2023-03-06T23:08:39.852Z,29.98
2023-03-06T23:11:11.076Z,35.55
2023-03-06T23:13:56.902Z,36.83
2023-03-06T23:16:42.866Z,31.13
2023-03-06T23:19:28.699Z,31.15
2023-03-06T23:22:14.590Z,31.83
2023-03-06T23:25:00.422Z,38.28
2023-03-06T23:27:28.087Z,31.30
2023-03-06T23:29:57.025Z,30.23
2023-03-06T23:32:24.325Z,31.15
2023-03-06T23:34:51.556Z,32.80
2023-03-06T23:37:18.845Z,31.35
2023-03-06T23:39:47.017Z,33.87
2023-03-06T23:42:14.432Z,29.55
2023-03-06T23:44:41.699Z,33.28
2023-03-06T23:47:08.993Z,32.65
2023-03-06T23:49:36.232Z,29.90
2023-03-06T23:52:04.471Z,28.17
2023-03-06T23:54:33.112Z,29.27
2023-03-06T23:57:00.427Z,28.63
2023-03-06T23:59:27.709Z,30.25
